createdAt,value
2023-03-13T00:01:20.879Z,6.09
2023-03-13T00:03:49.568Z,5.76
2023-03-13T00:06:18.699Z,5.55
2023-03-13T00:08:48.505Z,5.76
2023-03-13T00:11:17.503Z,5.88
2023-03-13T00:13:45.890Z,5.79
2023-03-13T00:16:16.609Z,5.44
2023-03-13T00:18:48.575Z,5.61
2023-03-13T00:21:18.507Z,5.43
2023-03-13T00:23:48.166Z,5.36
2023-03-13T00:26:18.668Z,4.94
2023-03-13T00:28:47.677Z,4.86
2023-03-13T00:31:17.871Z,4.72
2023-03-13T00:33:47.900Z,4.11
2023-03-13T00:36:17.802Z,4.70
2023-03-13T00:38:46.607Z,4.99
2023-03-13T00:41:18.028Z,4.78
2023-03-13T00:43:47.208Z,4.20
2023-03-13T00:46:17.174Z,4.39
2023-03-13T00:48:45.777Z,4.37
2023-03-13T00:51:15.979Z,4.62
2023-03-13T00:53:44.858Z,4.57
2023-03-13T00:56:16.298Z,4.65
2023-03-13T00:58:46.399Z,4.60
2023-03-13T01:01:16.739Z,5.10
2023-03-13T01:03:46.936Z,4.44
2023-03-13T01:06:17.304Z,4.95
2023-03-13T01:08:45.531Z,4.85
2023-03-13T01:11:16.620Z,4.52
2023-03-13T01:13:45.553Z,4.60
2023-03-13T01:16:16.648Z,4.76
2023-03-13T01:18:48.248Z,4.27
2023-03-13T01:21:19.900Z,3.82
2023-03-13T01:23:48.383Z,3.97
2023-03-13T01:26:18.387Z,3.60
2023-03-13T01:28:47.052Z,3.82
2023-03-13T01:31:17.752Z,3.98
2023-03-13T01:33:47.878Z,4.03
2023-03-13T01:36:16.932Z,3.65
2023-03-13T01:38:45.171Z,3.55
2023-03-13T01:41:13.965Z,4.06
2023-03-13T01:43:44.153Z,3.97
2023-03-13T01:46:16.664Z,3.95
2023-03-13T01:48:52.954Z,3.97
2023-03-13T01:51:25.295Z,3.98
2023-03-13T01:53:59.037Z,3.97
2023-03-13T01:56:33.182Z,4.43
2023-03-13T01:59:05.734Z,4.22
2023-03-13T02:01:34.370Z,4.15
2023-03-13T02:04:03.028Z,4.46
2023-03-13T02:06:34.407Z,4.16
2023-03-13T02:09:06.425Z,3.78
2023-03-13T02:11:45.269Z,4.34
2023-03-13T02:14:15.202Z,4.62
2023-03-13T02:16:47.872Z,4.27
2023-03-13T02:19:21.249Z,4.35
2023-03-13T02:21:55.393Z,4.41
2023-03-13T02:24:31.373Z,4.48
2023-03-13T02:27:01.194Z,4.92
2023-03-13T02:29:29.512Z,4.99
2023-03-13T02:31:57.993Z,4.61
2023-03-13T02:34:30.044Z,4.16
2023-03-13T02:36:59.811Z,4.12
2023-03-13T02:39:30.320Z,4.17
2023-03-13T02:42:02.056Z,4.59
2023-03-13T02:44:30.316Z,4.67
2023-03-13T02:46:58.776Z,4.55
2023-03-13T02:49:29.835Z,4.88
2023-03-13T02:52:00.955Z,4.99
2023-03-13T02:54:34.899Z,3.85
2023-03-13T02:57:06.465Z,4.87
2023-03-13T02:59:36.131Z,4.58
2023-03-13T03:02:04.530Z,4.80
2023-03-13T03:04:32.861Z,5.01
2023-03-13T03:07:01.104Z,5.24
2023-03-13T03:09:29.404Z,4.74
2023-03-13T03:11:57.826Z,5.34
2023-03-13T03:14:27.566Z,5.37
2023-03-13T03:16:55.820Z,5.42
2023-03-13T03:19:24.107Z,5.33
2023-03-13T03:21:52.310Z,5.53
2023-03-13T03:24:20.548Z,5.63
2023-03-13T03:26:49.031Z,5.22
2023-03-13T03:29:17.325Z,5.43
2023-03-13T03:31:46.970Z,4.87
2023-03-13T03:34:15.371Z,4.74
2023-03-13T03:36:43.714Z,5.03
2023-03-13T03:39:12.825Z,4.80
2023-03-13T03:41:41.103Z,5.17
2023-03-13T03:44:09.488Z,3.83
2023-03-13T03:46:37.859Z,4.38
2023-03-13T03:49:07.539Z,4.77
2023-03-13T03:51:35.813Z,5.00
2023-03-13T03:54:04.149Z,5.31
2023-03-13T03:56:32.450Z,4.55
2023-03-13T03:59:00.717Z,4.34
2023-03-13T04:01:29.024Z,4.00
2023-03-13T04:03:57.324Z,4.14
2023-03-13T04:06:27.046Z,4.49
2023-03-13T04:08:55.663Z,4.70
2023-03-13T04:11:23.939Z,4.93
2023-03-13T04:13:52.290Z,4.53
2023-03-13T04:16:20.714Z,3.81
2023-03-13T04:18:49.046Z,4.11
2023-03-13T04:21:17.284Z,4.09
2023-03-13T04:23:47.055Z,4.15
2023-03-13T04:26:15.385Z,4.41
2023-03-13T04:28:43.706Z,4.71
2023-03-13T04:31:12.224Z,4.65
2023-03-13T04:33:40.979Z,4.30
2023-03-13T04:36:10.011Z,3.76
2023-03-13T04:38:38.500Z,4.13
2023-03-13T04:41:08.342Z,4.71
2023-03-13T04:43:36.526Z,4.03
2023-03-13T04:46:04.890Z,4.69
2023-03-13T04:48:33.362Z,4.81
2023-03-13T04:51:01.607Z,4.68
2023-03-13T04:53:29.951Z,4.84
2023-03-13T04:55:58.182Z,4.52
2023-03-13T04:58:27.900Z,4.82
2023-03-13T05:00:57.131Z,5.00
2023-03-13T05:03:25.774Z,4.76
2023-03-13T05:05:54.057Z,5.01
2023-03-13T05:08:22.391Z,5.00
2023-03-13T05:10:50.760Z,4.96
2023-03-13T05:13:19.127Z,4.97
2023-03-13T05:15:48.836Z,4.54
2023-03-13T05:18:17.194Z,4.93
2023-03-13T05:20:45.578Z,4.89
2023-03-13T05:23:13.923Z,4.95
2023-03-13T05:25:42.473Z,4.45
2023-03-13T05:28:10.868Z,4.46
2023-03-13T05:30:39.244Z,3.51
2023-03-13T05:33:09.058Z,4.31
2023-03-13T05:35:37.400Z,4.10
2023-03-13T05:38:05.890Z,4.11
2023-03-13T05:40:34.185Z,3.93
2023-03-13T05:43:03.252Z,4.01
2023-03-13T05:45:31.611Z,4.59
2023-03-13T05:48:00.210Z,4.89
2023-03-13T05:50:29.928Z,4.88
2023-03-13T05:52:58.199Z,5.36
2023-03-13T05:55:26.455Z,5.60
2023-03-13T05:57:54.720Z,5.79
2023-03-13T06:00:23.419Z,5.90
2023-03-13T06:02:51.719Z,6.41
2023-03-13T06:05:20.087Z,6.42
2023-03-13T06:07:50.983Z,6.61
2023-03-13T06:10:19.675Z,6.60
2023-03-13T06:12:54.525Z,7.15
2023-03-13T06:15:23.221Z,7.62
2023-03-13T06:17:51.549Z,8.34
2023-03-13T06:20:20.210Z,9.22
2023-03-13T06:22:49.916Z,9.75
2023-03-13T06:25:18.363Z,9.17
2023-03-13T06:27:46.667Z,10.22
2023-03-13T06:30:15.430Z,10.61
2023-03-13T06:32:43.976Z,11.34
2023-03-13T06:35:12.282Z,11.36
2023-03-13T06:37:40.581Z,11.70
2023-03-13T06:40:12.137Z,12.25
2023-03-13T06:42:40.424Z,11.50
2023-03-13T06:45:10.167Z,11.57
2023-03-13T06:47:38.462Z,11.63
2023-03-13T06:50:07.474Z,12.77
2023-03-13T06:52:43.372Z,13.49
2023-03-13T06:55:14.114Z,13.44
2023-03-13T06:57:42.513Z,13.64
2023-03-13T07:00:12.698Z,13.27
2023-03-13T07:02:41.079Z,13.46
2023-03-13T07:05:10.509Z,14.37
2023-03-13T07:07:38.886Z,14.24
2023-03-13T07:10:08.142Z,14.13
2023-03-13T07:12:38.595Z,13.65
2023-03-13T07:15:08.179Z,12.26
2023-03-13T07:17:36.804Z,13.23
2023-03-13T07:20:06.862Z,14.59
2023-03-13T07:22:35.167Z,14.39
2023-03-13T07:25:03.573Z,14.47
2023-03-13T07:27:33.134Z,14.46
2023-03-13T07:30:02.814Z,15.27
2023-03-13T07:32:33.346Z,15.05
2023-03-13T07:35:03.589Z,15.79
2023-03-13T07:37:31.876Z,15.57
2023-03-13T07:40:00.232Z,16.21
2023-03-13T07:42:28.622Z,15.02
2023-03-13T07:44:56.962Z,15.39
2023-03-13T07:47:26.683Z,16.81
2023-03-13T07:49:55.040Z,17.61
2023-03-13T07:52:23.406Z,18.31
2023-03-13T07:54:51.734Z,17.88
2023-03-13T07:57:20.117Z,17.97
2023-03-13T07:59:48.530Z,17.44
2023-03-13T08:02:17.154Z,18.19
2023-03-13T08:04:47.005Z,18.24
2023-03-13T08:07:15.287Z,18.55
2023-03-13T08:09:43.827Z,19.66
2023-03-13T08:12:12.099Z,18.46
2023-03-13T08:14:40.291Z,18.26
2023-03-13T08:17:08.653Z,18.56
2023-03-13T08:19:37.096Z,16.86
2023-03-13T08:22:06.816Z,17.07
2023-03-13T08:24:35.161Z,16.08
2023-03-13T08:27:03.534Z,18.14
2023-03-13T08:29:31.905Z,18.92
2023-03-13T08:32:00.219Z,18.18
2023-03-13T08:34:28.662Z,18.91
2023-03-13T08:36:57.174Z,16.43
2023-03-13T08:39:26.854Z,17.53
2023-03-13T08:41:55.140Z,17.96
2023-03-13T08:44:23.391Z,18.69
2023-03-13T08:46:51.636Z,18.79
2023-03-13T08:49:20.087Z,19.36
2023-03-13T08:51:48.358Z,19.84
2023-03-13T08:54:16.730Z,19.88
2023-03-13T08:56:46.936Z,20.65
2023-03-13T08:59:15.979Z,20.54
2023-03-13T09:01:44.296Z,21.79
2023-03-13T09:04:12.609Z,21.28
2023-03-13T09:06:41.039Z,20.30
2023-03-13T09:09:09.983Z,19.89
2023-03-13T09:11:39.609Z,21.12
2023-03-13T09:14:11.933Z,19.57
2023-03-13T09:16:40.414Z,18.94
2023-03-13T09:19:08.723Z,20.53
2023-03-13T09:21:37.499Z,20.37
2023-03-13T09:24:06.526Z,19.63
2023-03-13T09:26:34.848Z,21.49
2023-03-13T09:29:03.146Z,21.42
2023-03-13T09:31:34.453Z,21.88
2023-03-13T09:34:02.970Z,20.86
2023-03-13T09:36:31.871Z,21.38
2023-03-13T09:39:01.326Z,22.69
2023-03-13T09:41:36.154Z,21.68
2023-03-13T09:44:12.236Z,22.60
2023-03-13T09:46:47.204Z,20.14
2023-03-13T09:49:26.431Z,20.67
2023-03-13T09:52:01.165Z,20.70
2023-03-13T09:54:36.179Z,21.33
2023-03-13T09:57:14.911Z,22.01
2023-03-13T09:59:50.355Z,22.33
2023-03-13T10:02:28.372Z,23.26
2023-03-13T10:05:04.711Z,23.17
2023-03-13T10:07:33.003Z,21.87
2023-03-13T10:10:02.516Z,21.73
2023-03-13T10:12:37.138Z,22.89
2023-03-13T10:15:22.956Z,20.37
2023-03-13T10:17:52.757Z,21.38
2023-03-13T10:20:26.015Z,21.31
2023-03-13T10:23:00.693Z,22.32
2023-03-13T10:25:33.638Z,20.81
2023-03-13T10:28:02.728Z,21.02
2023-03-13T10:30:32.510Z,21.33
2023-03-13T10:33:18.907Z,21.92
2023-03-13T10:35:47.603Z,22.46
2023-03-13T10:38:19.123Z,21.75
2023-03-13T10:40:58.716Z,19.84
2023-03-13T10:43:28.554Z,22.02
2023-03-13T10:45:57.377Z,23.47
2023-03-13T10:48:30.688Z,23.61
2023-03-13T10:51:02.198Z,21.76
2023-03-13T10:53:37.923Z,22.63
2023-03-13T10:56:13.000Z,21.84
2023-03-13T10:58:44.656Z,19.69
2023-03-13T11:01:22.919Z,20.86
2023-03-13T11:03:54.787Z,21.03
2023-03-13T11:06:31.474Z,21.12
2023-03-13T11:09:14.775Z,23.30
2023-03-13T11:11:48.880Z,22.08
2023-03-13T11:14:19.534Z,21.08
2023-03-13T11:16:52.669Z,20.89
2023-03-13T11:19:45.527Z,21.11
2023-03-13T11:22:31.622Z,23.08
2023-03-13T11:25:17.775Z,23.28
2023-03-13T11:27:54.472Z,22.01
2023-03-13T11:30:40.982Z,22.88
2023-03-13T11:33:20.051Z,23.14
2023-03-13T11:35:55.334Z,23.28
2023-03-13T11:38:30.761Z,24.21
2023-03-13T11:41:09.015Z,22.83
2023-03-13T11:44:06.423Z,21.88
2023-03-13T11:46:54.084Z,21.61
2023-03-13T11:49:59.836Z,22.56
2023-03-13T11:52:40.414Z,23.12
2023-03-13T11:55:31.072Z,23.25
2023-03-13T11:58:12.307Z,22.93
2023-03-13T12:00:45.758Z,23.55
2023-03-13T12:03:20.354Z,22.95
2023-03-13T12:05:53.190Z,21.82
2023-03-13T12:08:28.552Z,20.79
2023-03-13T12:11:08.059Z,21.52
2023-03-13T12:13:41.551Z,22.55
2023-03-13T12:16:13.683Z,22.41
2023-03-13T12:18:44.638Z,23.89
2023-03-13T12:21:20.855Z,22.54
2023-03-13T12:23:58.929Z,22.22
2023-03-13T12:26:38.777Z,22.72
2023-03-13T12:29:15.134Z,24.12
2023-03-13T12:31:49.369Z,24.80
2023-03-13T12:34:24.786Z,25.30
2023-03-13T12:36:58.265Z,26.03
2023-03-13T12:39:34.619Z,22.92
2023-03-13T12:42:18.776Z,22.87
2023-03-13T12:44:47.698Z,23.69
2023-03-13T12:47:21.693Z,23.58
2023-03-13T12:50:33.268Z,25.47
2023-03-13T12:53:38.033Z,25.79
2023-03-13T12:56:29.764Z,24.20
2023-03-13T12:59:03.857Z,26.54
2023-03-13T13:01:36.167Z,23.39
2023-03-13T13:04:08.515Z,21.51
2023-03-13T13:06:53.223Z,23.57
2023-03-13T13:09:25.090Z,24.62
2023-03-13T13:11:56.525Z,23.79
2023-03-13T13:15:00.329Z,25.01
2023-03-13T13:17:41.485Z,23.10
2023-03-13T13:20:40.178Z,23.95
2023-03-13T13:23:37.701Z,22.34
2023-03-13T13:26:47.236Z,23.28
2023-03-13T13:29:58.209Z,21.88
2023-03-13T13:32:43.480Z,22.16
2023-03-13T13:35:36.253Z,21.50
2023-03-13T13:38:37.288Z,21.99
2023-03-13T13:41:25.997Z,22.57
2023-03-13T13:44:28.535Z,21.67
2023-03-13T13:46:59.624Z,22.95
2023-03-13T13:49:37.869Z,22.47
2023-03-13T13:52:37.332Z,22.65
2023-03-13T13:55:33.768Z,22.98
2023-03-13T13:58:05.461Z,22.88
2023-03-13T14:00:42.239Z,22.32
2023-03-13T14:03:21.677Z,21.91
2023-03-13T14:05:55.316Z,21.76
2023-03-13T14:08:29.676Z,21.48
2023-03-13T14:11:11.458Z,20.47
2023-03-13T14:13:39.940Z,20.38
2023-03-13T14:16:25.906Z,21.56
2023-03-13T14:18:54.712Z,21.73
2023-03-13T14:21:25.353Z,21.96
2023-03-13T14:23:54.321Z,22.55
2023-03-13T14:26:24.662Z,21.80
2023-03-13T14:28:56.378Z,21.63
2023-03-13T14:31:29.806Z,20.49
2023-03-13T14:33:59.629Z,20.73
2023-03-13T14:36:31.597Z,21.40
2023-03-13T14:39:01.330Z,22.55
2023-03-13T14:41:33.974Z,21.82
2023-03-13T14:44:07.302Z,21.90
2023-03-13T14:46:38.352Z,21.23
2023-03-13T14:49:16.854Z,20.84
2023-03-13T14:51:47.722Z,20.49
2023-03-13T14:54:30.762Z,21.52
2023-03-13T14:57:16.412Z,21.02
2023-03-13T14:59:45.378Z,20.20
2023-03-13T15:02:20.223Z,20.02
2023-03-13T15:04:54.025Z,20.58
2023-03-13T15:07:24.640Z,20.03
2023-03-13T15:09:53.251Z,19.35
2023-03-13T15:12:23.643Z,19.25
2023-03-13T15:14:53.899Z,19.96
2023-03-13T15:17:23.684Z,20.30
2023-03-13T15:19:54.318Z,21.62
2023-03-13T15:22:29.470Z,20.36
2023-03-13T15:25:06.887Z,20.88
2023-03-13T15:27:35.953Z,20.38
2023-03-13T15:30:04.569Z,19.42
2023-03-13T15:32:36.123Z,20.05
2023-03-13T15:35:10.767Z,20.07
2023-03-13T15:37:40.609Z,20.06
2023-03-13T15:40:16.080Z,18.57
2023-03-13T15:42:44.849Z,18.35
2023-03-13T15:45:13.439Z,18.85
2023-03-13T15:47:41.704Z,18.27
2023-03-13T15:50:13.914Z,17.55
2023-03-13T15:52:43.718Z,17.31
2023-03-13T15:55:13.518Z,17.58
2023-03-13T15:57:45.617Z,17.84
2023-03-13T16:00:22.396Z,17.23
2023-03-13T16:02:51.121Z,16.76
2023-03-13T16:05:19.693Z,15.47
2023-03-13T16:07:49.392Z,15.42
2023-03-13T16:10:23.846Z,16.14
2023-03-13T16:12:53.553Z,16.13
2023-03-13T16:15:22.026Z,16.46
2023-03-13T16:17:50.326Z,15.85
2023-03-13T16:20:21.835Z,15.33
2023-03-13T16:22:53.528Z,15.47
2023-03-13T16:25:23.038Z,15.13
2023-03-13T16:27:53.595Z,14.98
2023-03-13T16:30:24.398Z,15.54
2023-03-13T16:32:52.779Z,14.94
2023-03-13T16:35:21.185Z,14.12
2023-03-13T16:37:50.921Z,14.74
2023-03-13T16:40:22.503Z,13.81
2023-03-13T16:42:50.920Z,13.32
2023-03-13T16:45:19.651Z,13.73
2023-03-13T16:47:48.515Z,13.08
2023-03-13T16:50:25.721Z,12.82
2023-03-13T16:52:54.841Z,13.47
2023-03-13T16:55:28.668Z,12.85
2023-03-13T16:57:57.377Z,13.45
2023-03-13T17:00:27.381Z,12.87
2023-03-13T17:02:56.740Z,12.77
2023-03-13T17:05:25.656Z,13.12
2023-03-13T17:07:54.399Z,13.46
2023-03-13T17:10:26.091Z,12.90
2023-03-13T17:12:54.693Z,13.16
2023-03-13T17:15:24.390Z,12.50
2023-03-13T17:17:54.268Z,12.67
2023-03-13T17:20:24.713Z,12.83
2023-03-13T17:22:53.072Z,12.82
2023-03-13T17:25:21.321Z,12.64
2023-03-13T17:27:51.179Z,12.31
2023-03-13T17:30:22.489Z,12.14
2023-03-13T17:32:51.038Z,11.93
2023-03-13T17:35:20.543Z,11.59
2023-03-13T17:37:49.512Z,11.28
2023-03-13T17:40:21.116Z,11.36
2023-03-13T17:42:50.936Z,11.13
2023-03-13T17:45:20.046Z,11.70
2023-03-13T17:47:49.290Z,11.42
2023-03-13T17:50:20.257Z,11.82
2023-03-13T17:52:48.583Z,11.66
2023-03-13T17:55:17.283Z,11.73
2023-03-13T17:57:45.655Z,12.20
2023-03-13T18:00:23.506Z,12.12
2023-03-13T18:02:52.219Z,12.08
2023-03-13T18:05:20.588Z,11.84
2023-03-13T18:07:49.735Z,12.29
2023-03-13T18:10:21.726Z,12.07
2023-03-13T18:12:50.893Z,11.54
2023-03-13T18:15:21.513Z,11.55
2023-03-13T18:17:50.480Z,11.41
2023-03-13T18:20:21.062Z,11.32
2023-03-13T18:22:49.372Z,11.32
2023-03-13T18:25:18.176Z,10.96
2023-03-13T18:27:46.391Z,11.49
2023-03-13T18:30:17.848Z,11.47
2023-03-13T18:32:47.840Z,10.86
2023-03-13T18:35:16.928Z,11.45
2023-03-13T18:37:47.084Z,11.52
2023-03-13T18:40:21.498Z,10.99
2023-03-13T18:42:50.818Z,11.23
2023-03-13T18:45:21.437Z,11.45
2023-03-13T18:47:51.372Z,11.01
2023-03-13T18:50:25.299Z,11.40
2023-03-13T18:52:55.490Z,11.33
2023-03-13T18:55:24.205Z,11.66
2023-03-13T18:57:52.592Z,11.78
2023-03-13T19:00:23.334Z,11.75
2023-03-13T19:02:53.113Z,11.84
2023-03-13T19:05:22.132Z,11.06
2023-03-13T19:07:50.633Z,10.35
2023-03-13T19:10:24.173Z,10.20
2023-03-13T19:12:52.891Z,10.65
2023-03-13T19:15:22.009Z,10.82
2023-03-13T19:17:50.265Z,10.59
2023-03-13T19:20:22.467Z,11.42
2023-03-13T19:22:50.960Z,11.33
2023-03-13T19:25:21.108Z,11.04
2023-03-13T19:27:49.730Z,11.60
2023-03-13T19:30:19.339Z,11.59
2023-03-13T19:32:47.879Z,11.41
2023-03-13T19:35:19.126Z,11.44
2023-03-13T19:37:49.375Z,11.40
2023-03-13T19:40:20.701Z,11.47
2023-03-13T19:42:49.004Z,11.45
2023-03-13T19:45:19.871Z,11.40
2023-03-13T19:47:48.198Z,11.30
2023-03-13T19:50:21.520Z,11.17
2023-03-13T19:52:51.316Z,10.47
2023-03-13T19:55:19.635Z,10.15
2023-03-13T19:57:47.898Z,10.35
2023-03-13T20:00:22.274Z,10.24
2023-03-13T20:02:52.407Z,10.70
2023-03-13T20:05:20.675Z,10.72
2023-03-13T20:07:53.399Z,10.90
2023-03-13T20:10:22.394Z,10.70
2023-03-13T20:12:50.744Z,10.40
2023-03-13T20:15:19.196Z,10.15
2023-03-13T20:17:47.490Z,10.47
2023-03-13T20:20:16.517Z,10.64
2023-03-13T20:22:44.863Z,10.71
2023-03-13T20:25:16.047Z,10.75
2023-03-13T20:27:44.400Z,10.75
2023-03-13T20:30:13.520Z,10.57
2023-03-13T20:32:56.756Z,10.39
2023-03-13T20:35:27.489Z,10.51
2023-03-13T20:37:57.931Z,10.50
2023-03-13T20:40:27.665Z,10.63
2023-03-13T20:42:58.186Z,10.60
2023-03-13T20:45:26.695Z,10.62
2023-03-13T20:47:55.296Z,10.63
2023-03-13T20:50:24.410Z,9.76
2023-03-13T20:52:52.682Z,10.03
2023-03-13T20:55:20.941Z,10.10
2023-03-13T20:57:50.759Z,10.00
2023-03-13T21:00:20.069Z,10.14
2023-03-13T21:02:49.318Z,10.09
2023-03-13T21:05:18.190Z,9.88
2023-03-13T21:07:46.449Z,9.85
2023-03-13T21:10:15.688Z,9.97
2023-03-13T21:12:43.954Z,10.12
2023-03-13T21:15:14.228Z,10.03
2023-03-13T21:17:42.759Z,10.12
2023-03-13T21:20:12.556Z,10.09
2023-03-13T21:22:41.781Z,10.06
2023-03-13T21:25:12.169Z,10.08
2023-03-13T21:27:40.690Z,9.93
2023-03-13T21:30:10.721Z,9.81
2023-03-13T21:32:41.682Z,9.91
2023-03-13T21:35:11.062Z,10.04
2023-03-13T21:37:40.227Z,10.04
2023-03-13T21:40:10.211Z,9.71
2023-03-13T21:42:39.046Z,9.79
2023-03-13T21:45:14.208Z,9.38
2023-03-13T21:47:43.896Z,9.74
2023-03-13T21:50:13.470Z,9.75
2023-03-13T21:52:42.530Z,9.70
2023-03-13T21:55:13.860Z,9.63
2023-03-13T21:57:42.179Z,9.62
2023-03-13T22:00:14.201Z,9.03
2023-03-13T22:02:45.130Z,8.49
2023-03-13T22:05:14.027Z,9.07
2023-03-13T22:07:42.445Z,9.42
2023-03-13T22:10:12.046Z,9.17
2023-03-13T22:12:41.279Z,9.27
2023-03-13T22:15:11.145Z,9.34
2023-03-13T22:17:41.801Z,9.33
2023-03-13T22:20:13.856Z,9.20
2023-03-13T22:22:42.163Z,8.54
2023-03-13T22:25:10.908Z,8.07
2023-03-13T22:27:39.262Z,7.75
2023-03-13T22:30:08.949Z,8.00
2023-03-13T22:32:41.940Z,8.21
2023-03-13T22:35:32.280Z,8.62
2023-03-13T22:38:04.230Z,8.77
2023-03-13T22:40:32.587Z,8.61
2023-03-13T22:43:00.835Z,8.99
2023-03-13T22:45:30.667Z,9.06
2023-03-13T22:47:59.200Z,8.58
2023-03-13T22:50:28.871Z,9.04
2023-03-13T22:52:57.261Z,8.76
2023-03-13T22:55:25.480Z,8.85
2023-03-13T22:57:53.819Z,8.68
2023-03-13T23:00:22.866Z,8.57
2023-03-13T23:02:51.186Z,8.65
2023-03-13T23:05:19.399Z,8.53
2023-03-13T23:07:50.951Z,8.34
2023-03-13T23:10:19.778Z,8.52
2023-03-13T23:12:48.089Z,8.32
2023-03-13T23:15:16.399Z,8.24
2023-03-13T23:17:44.606Z,8.44
2023-03-13T23:20:14.113Z,8.20
2023-03-13T23:22:43.192Z,8.17
2023-03-13T23:25:14.061Z,7.97
2023-03-13T23:27:43.492Z,8.25
2023-03-13T23:30:13.801Z,8.28
2023-03-13T23:32:44.828Z,8.39
2023-03-13T23:35:14.323Z,8.12
2023-03-13T23:37:42.676Z,7.96
2023-03-13T23:40:13.167Z,8.20
2023-03-13T23:42:41.526Z,8.23
2023-03-13T23:45:10.161Z,7.66
2023-03-13T23:47:38.548Z,7.67
2023-03-13T23:50:07.862Z,7.48
2023-03-13T23:52:36.515Z,8.04
2023-03-13T23:55:05.662Z,7.98
2023-03-13T23:57:37.688Z,7.58
